sensor_id;sensor_type;location;lat;lon;timestamp;temperature;humidity
23579;DHT22;11967;50.852;4.400;2024-02-28T00:01:05;11.90;99.90
23579;DHT22;11967;50.852;4.400;2024-02-28T00:03:31;12.00;99.90
23579;DHT22;11967;50.852;4.400;2024-02-28T00:05:57;12.00;99.90
23579;DHT22;11967;50.852;4.400;2024-02-28T00:08:23;11.90;99.90
23579;DHT22;11967;50.852;4.400;2024-02-28T00:10:48;12.00;99.90
23579;DHT22;11967;50.852;4.400;2024-02-28T00:13:14;11.90;99.90
23579;DHT22;11967;50.852;4.400;2024-02-28T00:15:41;11.80;99.90
23579;DHT22;11967;50.852;4.400;2024-02-28T00:18:07;11.80;99.90
23579;DHT22;11967;50.852;4.400;2024-02-28T00:20:33;11.60;99.90
23579;DHT22;11967;50.852;4.400;2024-02-28T00:22:58;11.60;99.90
23579;DHT22;11967;50.852;4.400;2024-02-28T00:25:24;11.40;99.90
23579;DHT22;11967;50.852;4.400;2024-02-28T00:27:50;11.40;99.90
23579;DHT22;11967;50.852;4.400;2024-02-28T00:30:17;11.30;99.90
23579;DHT22;11967;50.852;4.400;2024-02-28T00:32:42;11.30;99.90
23579;DHT22;11967;50.852;4.400;2024-02-28T00:35:09;11.30;99.90
23579;DHT22;11967;50.852;4.400;2024-02-28T00:37:35;11.40;99.90
23579;DHT22;11967;50.852;4.400;2024-02-28T00:40:01;11.60;99.90
23579;DHT22;11967;50.852;4.400;2024-02-28T00:42:37;11.60;99.90
23579;DHT22;11967;50.852;4.400;2024-02-28T00:45:03;11.50;99.90
23579;DHT22;11967;50.852;4.400;2024-02-28T00:47:30;11.40;99.90
23579;DHT22;11967;50.852;4.400;2024-02-28T00:49:57;11.40;99.90
23579;DHT22;11967;50.852;4.400;2024-02-28T00:52:23;11.40;99.90
23579;DHT22;11967;50.852;4.400;2024-02-28T00:54:57;11.30;99.90
23579;DHT22;11967;50.852;4.400;2024-02-28T00:57:23;11.30;99.90
23579;DHT22;11967;50.852;4.400;2024-02-28T00:59:51;11.20;99.90
23579;DHT22;11967;50.852;4.400;2024-02-28T01:02:17;11.10;99.90
23579;DHT22;11967;50.852;4.400;2024-02-28T01:04:43;11.00;99.90
23579;DHT22;11967;50.852;4.400;2024-02-28T01:07:09;11.00;99.90
23579;DHT22;11967;50.852;4.400;2024-02-28T01:09:35;11.00;99.90
23579;DHT22;11967;50.852;4.400;2024-02-28T01:12:01;11.00;99.90
23579;DHT22;11967;50.852;4.400;2024-02-28T01:14:27;10.90;99.90
23579;DHT22;11967;50.852;4.400;2024-02-28T01:16:53;10.90;99.90
23579;DHT22;11967;50.852;4.400;2024-02-28T01:19:19;10.90;99.90
23579;DHT22;11967;50.852;4.400;2024-02-28T01:21:44;11.00;99.90
23579;DHT22;11967;50.852;4.400;2024-02-28T01:24:10;10.90;99.90
23579;DHT22;11967;50.852;4.400;2024-02-28T01:26:35;11.00;99.90
23579;DHT22;11967;50.852;4.400;2024-02-28T01:29:01;11.10;99.90
23579;DHT22;11967;50.852;4.400;2024-02-28T01:31:26;11.00;99.90
23579;DHT22;11967;50.852;4.400;2024-02-28T01:33:53;10.90;99.90
23579;DHT22;11967;50.852;4.400;2024-02-28T01:36:18;11.00;99.90
23579;DHT22;11967;50.852;4.400;2024-02-28T01:38:44;10.90;99.90
23579;DHT22;11967;50.852;4.400;2024-02-28T01:41:11;10.90;99.90
23579;DHT22;11967;50.852;4.400;2024-02-28T01:43:36;10.90;99.90
23579;DHT22;11967;50.852;4.400;2024-02-28T01:46:05;10.90;99.90
23579;DHT22;11967;50.852;4.400;2024-02-28T01:48:38;10.80;99.90
23579;DHT22;11967;50.852;4.400;2024-02-28T01:51:10;10.80;99.90
23579;DHT22;11967;50.852;4.400;2024-02-28T01:53:37;10.80;99.90
23579;DHT22;11967;50.852;4.400;2024-02-28T01:56:02;10.80;99.90
23579;DHT22;11967;50.852;4.400;2024-02-28T01:58:28;10.70;99.90
23579;DHT22;11967;50.852;4.400;2024-02-28T02:00:54;10.60;99.90
23579;DHT22;11967;50.852;4.400;2024-02-28T02:03:19;10.60;99.90
23579;DHT22;11967;50.852;4.400;2024-02-28T02:05:45;10.50;99.90
23579;DHT22;11967;50.852;4.400;2024-02-28T02:08:11;10.50;99.90
23579;DHT22;11967;50.852;4.400;2024-02-28T02:10:37;10.60;99.90
23579;DHT22;11967;50.852;4.400;2024-02-28T02:13:06;10.50;99.90
23579;DHT22;11967;50.852;4.400;2024-02-28T02:15:32;10.50;99.90
23579;DHT22;11967;50.852;4.400;2024-02-28T02:17:58;10.50;99.90
23579;DHT22;11967;50.852;4.400;2024-02-28T02:20:25;10.60;99.90
23579;DHT22;11967;50.852;4.400;2024-02-28T02:22:52;10.60;99.90
23579;DHT22;11967;50.852;4.400;2024-02-28T02:25:18;10.60;99.90
23579;DHT22;11967;50.852;4.400;2024-02-28T02:27:44;10.50;99.90
23579;DHT22;11967;50.852;4.400;2024-02-28T02:30:10;10.50;99.90
23579;DHT22;11967;50.852;4.400;2024-02-28T02:32:36;10.40;99.90
23579;DHT22;11967;50.852;4.400;2024-02-28T02:35:01;10.40;99.90
23579;DHT22;11967;50.852;4.400;2024-02-28T02:37:27;10.50;99.90
23579;DHT22;11967;50.852;4.400;2024-02-28T02:39:53;10.50;99.90
23579;DHT22;11967;50.852;4.400;2024-02-28T02:42:19;10.50;99.90
23579;DHT22;11967;50.852;4.400;2024-02-28T02:44:45;10.30;99.90
23579;DHT22;11967;50.852;4.400;2024-02-28T02:47:10;10.40;99.90
23579;DHT22;11967;50.852;4.400;2024-02-28T02:49:36;10.50;99.90
23579;DHT22;11967;50.852;4.400;2024-02-28T02:52:02;10.50;99.90
23579;DHT22;11967;50.852;4.400;2024-02-28T02:54:27;10.40;99.90
23579;DHT22;11967;50.852;4.400;2024-02-28T02:56:53;10.30;99.90
23579;DHT22;11967;50.852;4.400;2024-02-28T02:59:18;10.30;99.90
23579;DHT22;11967;50.852;4.400;2024-02-28T03:01:47;10.30;99.90
23579;DHT22;11967;50.852;4.400;2024-02-28T03:04:13;10.30;99.90
23579;DHT22;11967;50.852;4.400;2024-02-28T03:06:38;10.30;99.90
23579;DHT22;11967;50.852;4.400;2024-02-28T03:09:04;10.40;99.90
23579;DHT22;11967;50.852;4.400;2024-02-28T03:11:29;10.40;99.90
23579;DHT22;11967;50.852;4.400;2024-02-28T03:13:55;10.30;99.90
23579;DHT22;11967;50.852;4.400;2024-02-28T03:16:21;10.40;99.90
23579;DHT22;11967;50.852;4.400;2024-02-28T03:18:46;10.30;99.90
23579;DHT22;11967;50.852;4.400;2024-02-28T03:21:12;10.20;99.90
23579;DHT22;11967;50.852;4.400;2024-02-28T03:23:38;10.30;99.90
23579;DHT22;11967;50.852;4.400;2024-02-28T03:26:03;10.20;99.90
23579;DHT22;11967;50.852;4.400;2024-02-28T03:28:29;10.30;99.90
23579;DHT22;11967;50.852;4.400;2024-02-28T03:30:55;10.20;99.90
23579;DHT22;11967;50.852;4.400;2024-02-28T03:33:22;10.10;99.90
23579;DHT22;11967;50.852;4.400;2024-02-28T03:35:50;10.00;99.90
23579;DHT22;11967;50.852;4.400;2024-02-28T03:38:26;10.00;99.90
23579;DHT22;11967;50.852;4.400;2024-02-28T03:40:51;10.00;99.90
23579;DHT22;11967;50.852;4.400;2024-02-28T03:43:17;10.00;99.90
23579;DHT22;11967;50.852;4.400;2024-02-28T03:45:45;10.00;99.90
23579;DHT22;11967;50.852;4.400;2024-02-28T03:48:11;10.00;99.90
23579;DHT22;11967;50.852;4.400;2024-02-28T03:50:36;10.10;99.90
23579;DHT22;11967;50.852;4.400;2024-02-28T03:53:03;10.00;99.90
23579;DHT22;11967;50.852;4.400;2024-02-28T03:55:29;9.90;99.90
23579;DHT22;11967;50.852;4.400;2024-02-28T03:57:56;9.90;99.90
23579;DHT22;11967;50.852;4.400;2024-02-28T04:00:22;9.80;99.90
23579;DHT22;11967;50.852;4.400;2024-02-28T04:02:48;9.80;99.90
23579;DHT22;11967;50.852;4.400;2024-02-28T04:05:13;9.80;99.90
23579;DHT22;11967;50.852;4.400;2024-02-28T04:07:39;9.80;99.90
23579;DHT22;11967;50.852;4.400;2024-02-28T04:10:05;9.80;99.90
23579;DHT22;11967;50.852;4.400;2024-02-28T04:12:31;9.80;99.90
23579;DHT22;11967;50.852;4.400;2024-02-28T04:14:57;9.80;99.90
23579;DHT22;11967;50.852;4.400;2024-02-28T04:17:22;9.80;99.90
23579;DHT22;11967;50.852;4.400;2024-02-28T04:19:48;9.70;99.90
23579;DHT22;11967;50.852;4.400;2024-02-28T04:22:14;9.70;99.90
23579;DHT22;11967;50.852;4.400;2024-02-28T04:24:39;9.60;99.90
23579;DHT22;11967;50.852;4.400;2024-02-28T04:27:05;9.50;99.90
23579;DHT22;11967;50.852;4.400;2024-02-28T04:29:32;9.50;99.90
23579;DHT22;11967;50.852;4.400;2024-02-28T04:31:58;9.50;99.90
23579;DHT22;11967;50.852;4.400;2024-02-28T04:34:27;9.60;99.90
23579;DHT22;11967;50.852;4.400;2024-02-28T04:36:54;9.70;99.90
23579;DHT22;11967;50.852;4.400;2024-02-28T04:39:20;9.70;99.90
23579;DHT22;11967;50.852;4.400;2024-02-28T04:41:46;9.70;99.90
23579;DHT22;11967;50.852;4.400;2024-02-28T04:44:13;9.90;99.90
23579;DHT22;11967;50.852;4.400;2024-02-28T04:46:44;9.90;99.90
23579;DHT22;11967;50.852;4.400;2024-02-28T04:49:19;9.70;99.90
23579;DHT22;11967;50.852;4.400;2024-02-28T04:51:49;9.80;99.90
23579;DHT22;11967;50.852;4.400;2024-02-28T04:54:23;9.70;99.90
23579;DHT22;11967;50.852;4.400;2024-02-28T04:56:48;9.70;99.90
23579;DHT22;11967;50.852;4.400;2024-02-28T04:59:16;9.60;99.90
23579;DHT22;11967;50.852;4.400;2024-02-28T05:01:42;9.50;99.90
23579;DHT22;11967;50.852;4.400;2024-02-28T05:04:09;9.50;99.90
23579;DHT22;11967;50.852;4.400;2024-02-28T05:06:35;9.50;99.90
23579;DHT22;11967;50.852;4.400;2024-02-28T05:09:01;9.60;99.90
23579;DHT22;11967;50.852;4.400;2024-02-28T05:11:27;9.60;99.90
23579;DHT22;11967;50.852;4.400;2024-02-28T05:13:53;9.60;99.90
23579;DHT22;11967;50.852;4.400;2024-02-28T05:16:20;9.50;99.90
23579;DHT22;11967;50.852;4.400;2024-02-28T05:18:46;9.50;99.90
23579;DHT22;11967;50.852;4.400;2024-02-28T05:21:12;9.50;99.90
23579;DHT22;11967;50.852;4.400;2024-02-28T05:23:38;9.50;99.90
23579;DHT22;11967;50.852;4.400;2024-02-28T05:26:05;9.60;99.90
23579;DHT22;11967;50.852;4.400;2024-02-28T05:28:32;9.60;99.90
23579;DHT22;11967;50.852;4.400;2024-02-28T05:31:20;9.60;99.90
23579;DHT22;11967;50.852;4.400;2024-02-28T05:33:46;9.60;99.90
23579;DHT22;11967;50.852;4.400;2024-02-28T05:36:12;9.60;99.90
23579;DHT22;11967;50.852;4.400;2024-02-28T05:38:37;9.70;99.90
23579;DHT22;11967;50.852;4.400;2024-02-28T05:41:03;9.50;99.90
23579;DHT22;11967;50.852;4.400;2024-02-28T05:43:29;9.60;99.90
23579;DHT22;11967;50.852;4.400;2024-02-28T05:45:54;9.70;99.90
23579;DHT22;11967;50.852;4.400;2024-02-28T05:48:20;9.60;99.90
23579;DHT22;11967;50.852;4.400;2024-02-28T05:50:45;9.70;99.90
23579;DHT22;11967;50.852;4.400;2024-02-28T05:53:11;9.60;99.90
23579;DHT22;11967;50.852;4.400;2024-02-28T05:55:37;9.60;99.90
23579;DHT22;11967;50.852;4.400;2024-02-28T05:58:03;9.50;99.90
23579;DHT22;11967;50.852;4.400;2024-02-28T06:00:28;9.40;99.90
23579;DHT22;11967;50.852;4.400;2024-02-28T06:02:54;9.30;99.90
23579;DHT22;11967;50.852;4.400;2024-02-28T06:05:20;9.30;99.90
23579;DHT22;11967;50.852;4.400;2024-02-28T06:07:46;9.10;99.90
23579;DHT22;11967;50.852;4.400;2024-02-28T06:10:11;9.10;99.90
23579;DHT22;11967;50.852;4.400;2024-02-28T06:12:37;9.10;99.90
23579;DHT22;11967;50.852;4.400;2024-02-28T06:15:04;9.30;99.90
23579;DHT22;11967;50.852;4.400;2024-02-28T06:17:30;9.30;99.90
23579;DHT22;11967;50.852;4.400;2024-02-28T06:20:06;9.40;99.90
23579;DHT22;11967;50.852;4.400;2024-02-28T06:22:52;9.40;99.90
23579;DHT22;11967;50.852;4.400;2024-02-28T06:25:24;9.50;99.90
23579;DHT22;11967;50.852;4.400;2024-02-28T06:27:53;9.60;99.90
23579;DHT22;11967;50.852;4.400;2024-02-28T06:30:22;9.50;99.90
23579;DHT22;11967;50.852;4.400;2024-02-28T06:32:47;9.60;99.90
23579;DHT22;11967;50.852;4.400;2024-02-28T06:35:13;9.70;99.90
23579;DHT22;11967;50.852;4.400;2024-02-28T06:37:38;9.70;99.90
23579;DHT22;11967;50.852;4.400;2024-02-28T06:40:04;9.60;99.90
23579;DHT22;11967;50.852;4.400;2024-02-28T06:42:30;9.60;99.90
23579;DHT22;11967;50.852;4.400;2024-02-28T06:44:56;9.70;99.90
23579;DHT22;11967;50.852;4.400;2024-02-28T06:47:22;9.70;99.90
23579;DHT22;11967;50.852;4.400;2024-02-28T06:49:47;9.80;99.90
23579;DHT22;11967;50.852;4.400;2024-02-28T06:52:15;9.80;99.90
23579;DHT22;11967;50.852;4.400;2024-02-28T06:54:40;9.90;99.90
23579;DHT22;11967;50.852;4.400;2024-02-28T06:57:06;9.90;99.90
23579;DHT22;11967;50.852;4.400;2024-02-28T06:59:32;9.80;99.90
23579;DHT22;11967;50.852;4.400;2024-02-28T07:01:58;9.70;99.90
23579;DHT22;11967;50.852;4.400;2024-02-28T07:04:24;9.80;99.90
23579;DHT22;11967;50.852;4.400;2024-02-28T07:06:49;9.70;99.90
23579;DHT22;11967;50.852;4.400;2024-02-28T07:09:16;9.70;99.90
23579;DHT22;11967;50.852;4.400;2024-02-28T07:11:41;9.80;99.90
23579;DHT22;11967;50.852;4.400;2024-02-28T07:14:08;9.90;99.90
23579;DHT22;11967;50.852;4.400;2024-02-28T07:16:33;9.80;99.90
23579;DHT22;11967;50.852;4.400;2024-02-28T07:19:01;9.80;99.90
23579;DHT22;11967;50.852;4.400;2024-02-28T07:21:27;9.80;99.90
23579;DHT22;11967;50.852;4.400;2024-02-28T07:23:52;9.80;99.90
23579;DHT22;11967;50.852;4.400;2024-02-28T07:26:19;9.80;99.90
23579;DHT22;11967;50.852;4.400;2024-02-28T07:28:45;9.80;99.90
23579;DHT22;11967;50.852;4.400;2024-02-28T07:31:16;9.80;99.90
23579;DHT22;11967;50.852;4.400;2024-02-28T07:33:42;9.70;99.90
23579;DHT22;11967;50.852;4.400;2024-02-28T07:36:08;9.80;99.90
23579;DHT22;11967;50.852;4.400;2024-02-28T07:38:34;9.80;99.90
23579;DHT22;11967;50.852;4.400;2024-02-28T07:41:00;9.90;99.90
23579;DHT22;11967;50.852;4.400;2024-02-28T07:43:27;10.00;99.90
23579;DHT22;11967;50.852;4.400;2024-02-28T07:45:55;10.00;99.90
23579;DHT22;11967;50.852;4.400;2024-02-28T07:48:21;9.90;99.90
23579;DHT22;11967;50.852;4.400;2024-02-28T07:50:47;10.00;99.90
23579;DHT22;11967;50.852;4.400;2024-02-28T07:53:13;9.90;99.90
23579;DHT22;11967;50.852;4.400;2024-02-28T07:55:39;10.00;99.90
23579;DHT22;11967;50.852;4.400;2024-02-28T07:58:05;10.00;99.90
23579;DHT22;11967;50.852;4.400;2024-02-28T08:00:32;10.10;99.90
23579;DHT22;11967;50.852;4.400;2024-02-28T08:02:59;10.00;99.90
23579;DHT22;11967;50.852;4.400;2024-02-28T08:05:25;10.00;99.90
23579;DHT22;11967;50.852;4.400;2024-02-28T08:07:50;10.10;99.90
23579;DHT22;11967;50.852;4.400;2024-02-28T08:10:16;10.00;99.90
23579;DHT22;11967;50.852;4.400;2024-02-28T08:12:42;9.90;99.90
23579;DHT22;11967;50.852;4.400;2024-02-28T08:15:08;9.90;99.90
23579;DHT22;11967;50.852;4.400;2024-02-28T08:17:33;9.80;99.90
23579;DHT22;11967;50.852;4.400;2024-02-28T08:19:59;9.90;99.90
23579;DHT22;11967;50.852;4.400;2024-02-28T08:22:25;10.00;99.90
23579;DHT22;11967;50.852;4.400;2024-02-28T08:24:54;10.00;99.90
23579;DHT22;11967;50.852;4.400;2024-02-28T08:27:19;10.20;99.90
23579;DHT22;11967;50.852;4.400;2024-02-28T08:29:46;10.80;99.90
23579;DHT22;11967;50.852;4.400;2024-02-28T08:32:13;11.10;99.90
23579;DHT22;11967;50.852;4.400;2024-02-28T08:34:43;11.00;99.90
23579;DHT22;11967;50.852;4.400;2024-02-28T08:37:10;10.90;99.90
23579;DHT22;11967;50.852;4.400;2024-02-28T08:39:35;10.80;99.90
23579;DHT22;11967;50.852;4.400;2024-02-28T08:42:01;10.80;99.90
23579;DHT22;11967;50.852;4.400;2024-02-28T08:44:27;10.70;99.90
23579;DHT22;11967;50.852;4.400;2024-02-28T08:46:52;10.40;99.90
23579;DHT22;11967;50.852;4.400;2024-02-28T08:49:18;10.30;99.90
23579;DHT22;11967;50.852;4.400;2024-02-28T08:51:43;10.40;99.90
23579;DHT22;11967;50.852;4.400;2024-02-28T08:54:09;10.60;99.90
23579;DHT22;11967;50.852;4.400;2024-02-28T08:56:35;10.60;99.90
23579;DHT22;11967;50.852;4.400;2024-02-28T08:59:00;10.60;99.90
23579;DHT22;11967;50.852;4.400;2024-02-28T09:01:26;10.40;99.90
23579;DHT22;11967;50.852;4.400;2024-02-28T09:03:51;10.50;99.90
23579;DHT22;11967;50.852;4.400;2024-02-28T09:06:17;10.50;99.90
23579;DHT22;11967;50.852;4.400;2024-02-28T09:08:43;10.40;99.90
23579;DHT22;11967;50.852;4.400;2024-02-28T09:11:08;10.20;99.90
23579;DHT22;11967;50.852;4.400;2024-02-28T09:13:34;10.30;99.90
23579;DHT22;11967;50.852;4.400;2024-02-28T09:16:03;10.30;99.90
23579;DHT22;11967;50.852;4.400;2024-02-28T09:18:29;10.20;99.90
23579;DHT22;11967;50.852;4.400;2024-02-28T09:20:55;10.30;99.90
23579;DHT22;11967;50.852;4.400;2024-02-28T09:23:21;10.20;99.90
23579;DHT22;11967;50.852;4.400;2024-02-28T09:25:47;10.30;99.90
23579;DHT22;11967;50.852;4.400;2024-02-28T09:28:12;10.30;99.90
23579;DHT22;11967;50.852;4.400;2024-02-28T09:30:40;10.30;99.90
23579;DHT22;11967;50.852;4.400;2024-02-28T09:33:06;10.30;99.90
23579;DHT22;11967;50.852;4.400;2024-02-28T09:35:32;10.50;99.90
23579;DHT22;11967;50.852;4.400;2024-02-28T09:37:57;10.60;99.90
23579;DHT22;11967;50.852;4.400;2024-02-28T09:40:23;10.50;99.90
23579;DHT22;11967;50.852;4.400;2024-02-28T09:42:53;10.50;99.90
23579;DHT22;11967;50.852;4.400;2024-02-28T09:45:21;10.50;99.90
23579;DHT22;11967;50.852;4.400;2024-02-28T09:47:48;10.50;99.90
23579;DHT22;11967;50.852;4.400;2024-02-28T09:50:13;10.50;99.90
23579;DHT22;11967;50.852;4.400;2024-02-28T09:52:40;10.50;99.90
23579;DHT22;11967;50.852;4.400;2024-02-28T09:55:06;10.50;99.90
23579;DHT22;11967;50.852;4.400;2024-02-28T09:57:34;10.50;99.90
23579;DHT22;11967;50.852;4.400;2024-02-28T10:00:00;10.40;99.90
23579;DHT22;11967;50.852;4.400;2024-02-28T10:02:26;10.40;99.90
23579;DHT22;11967;50.852;4.400;2024-02-28T10:04:53;10.50;99.90
23579;DHT22;11967;50.852;4.400;2024-02-28T10:07:21;10.40;99.90
23579;DHT22;11967;50.852;4.400;2024-02-28T10:09:47;10.40;99.90
23579;DHT22;11967;50.852;4.400;2024-02-28T10:12:13;10.30;99.90
23579;DHT22;11967;50.852;4.400;2024-02-28T10:14:39;10.30;99.90
23579;DHT22;11967;50.852;4.400;2024-02-28T10:17:05;10.30;99.90
23579;DHT22;11967;50.852;4.400;2024-02-28T10:19:31;10.40;99.90
23579;DHT22;11967;50.852;4.400;2024-02-28T10:21:56;10.40;99.90
23579;DHT22;11967;50.852;4.400;2024-02-28T10:24:24;10.50;99.90
23579;DHT22;11967;50.852;4.400;2024-02-28T10:26:50;10.50;99.90
23579;DHT22;11967;50.852;4.400;2024-02-28T10:29:24;10.50;99.90
23579;DHT22;11967;50.852;4.400;2024-02-28T10:31:51;10.70;99.90
23579;DHT22;11967;50.852;4.400;2024-02-28T10:34:17;10.70;99.90
23579;DHT22;11967;50.852;4.400;2024-02-28T10:36:44;10.70;99.90
23579;DHT22;11967;50.852;4.400;2024-02-28T10:39:11;10.70;99.90
23579;DHT22;11967;50.852;4.400;2024-02-28T10:41:40;10.80;99.90
23579;DHT22;11967;50.852;4.400;2024-02-28T10:44:06;10.90;99.90
23579;DHT22;11967;50.852;4.400;2024-02-28T10:46:32;11.20;99.90
23579;DHT22;11967;50.852;4.400;2024-02-28T10:48:58;11.20;99.90
23579;DHT22;11967;50.852;4.400;2024-02-28T10:51:24;11.10;99.90
23579;DHT22;11967;50.852;4.400;2024-02-28T10:54:14;10.90;99.90
23579;DHT22;11967;50.852;4.400;2024-02-28T10:56:42;11.00;99.90
23579;DHT22;11967;50.852;4.400;2024-02-28T10:59:09;11.10;99.90
23579;DHT22;11967;50.852;4.400;2024-02-28T11:01:43;11.00;99.90
23579;DHT22;11967;50.852;4.400;2024-02-28T11:04:10;11.10;99.90
23579;DHT22;11967;50.852;4.400;2024-02-28T11:06:50;11.10;99.90
23579;DHT22;11967;50.852;4.400;2024-02-28T11:09:20;11.10;99.90
23579;DHT22;11967;50.852;4.400;2024-02-28T11:11:48;11.20;99.90
23579;DHT22;11967;50.852;4.400;2024-02-28T11:14:15;11.30;99.90
23579;DHT22;11967;50.852;4.400;2024-02-28T11:16:41;11.20;99.90
23579;DHT22;11967;50.852;4.400;2024-02-28T11:19:22;11.20;99.90
23579;DHT22;11967;50.852;4.400;2024-02-28T11:21:55;11.20;99.90
23579;DHT22;11967;50.852;4.400;2024-02-28T11:24:25;11.10;99.90
23579;DHT22;11967;50.852;4.400;2024-02-28T11:26:53;11.10;99.90
23579;DHT22;11967;50.852;4.400;2024-02-28T11:29:24;11.20;99.90
23579;DHT22;11967;50.852;4.400;2024-02-28T11:31:51;11.30;99.90
23579;DHT22;11967;50.852;4.400;2024-02-28T11:34:16;11.40;99.90
23579;DHT22;11967;50.852;4.400;2024-02-28T11:36:42;11.40;99.90
23579;DHT22;11967;50.852;4.400;2024-02-28T11:39:07;11.40;99.90
23579;DHT22;11967;50.852;4.400;2024-02-28T11:41:33;11.40;99.90
23579;DHT22;11967;50.852;4.400;2024-02-28T11:43:59;11.40;99.90
23579;DHT22;11967;50.852;4.400;2024-02-28T11:46:29;11.50;99.90
23579;DHT22;11967;50.852;4.400;2024-02-28T11:48:55;11.50;99.90
23579;DHT22;11967;50.852;4.400;2024-02-28T11:51:20;11.50;99.90
23579;DHT22;11967;50.852;4.400;2024-02-28T11:53:46;11.60;99.90
23579;DHT22;11967;50.852;4.400;2024-02-28T11:56:12;11.70;99.90
23579;DHT22;11967;50.852;4.400;2024-02-28T11:58:52;11.70;99.90
23579;DHT22;11967;50.852;4.400;2024-02-28T12:01:19;11.80;99.90
23579;DHT22;11967;50.852;4.400;2024-02-28T12:03:45;11.90;99.90
23579;DHT22;11967;50.852;4.400;2024-02-28T12:06:11;11.80;99.90
23579;DHT22;11967;50.852;4.400;2024-02-28T12:08:37;11.80;99.90
23579;DHT22;11967;50.852;4.400;2024-02-28T12:11:07;11.80;99.90
23579;DHT22;11967;50.852;4.400;2024-02-28T12:13:33;11.90;99.90
23579;DHT22;11967;50.852;4.400;2024-02-28T12:16:00;12.00;99.90
23579;DHT22;11967;50.852;4.400;2024-02-28T12:18:26;12.00;99.90
23579;DHT22;11967;50.852;4.400;2024-02-28T12:20:54;12.10;99.90
23579;DHT22;11967;50.852;4.400;2024-02-28T12:23:19;12.20;99.90
23579;DHT22;11967;50.852;4.400;2024-02-28T12:25:45;12.50;99.90
23579;DHT22;11967;50.852;4.400;2024-02-28T12:28:11;12.40;99.90
23579;DHT22;11967;50.852;4.400;2024-02-28T12:30:41;12.30;99.90
23579;DHT22;11967;50.852;4.400;2024-02-28T12:33:08;12.30;99.90
23579;DHT22;11967;50.852;4.400;2024-02-28T12:35:34;12.30;99.90
23579;DHT22;11967;50.852;4.400;2024-02-28T12:38:00;12.40;99.90
23579;DHT22;11967;50.852;4.400;2024-02-28T12:40:25;12.40;99.90
23579;DHT22;11967;50.852;4.400;2024-02-28T12:42:51;12.50;99.90
23579;DHT22;11967;50.852;4.400;2024-02-28T12:45:16;12.40;99.90
23579;DHT22;11967;50.852;4.400;2024-02-28T12:47:43;12.20;99.90
23579;DHT22;11967;50.852;4.400;2024-02-28T12:50:09;12.20;99.90
23579;DHT22;11967;50.852;4.400;2024-02-28T12:52:35;12.10;99.90
23579;DHT22;11967;50.852;4.400;2024-02-28T12:55:01;12.10;99.90
23579;DHT22;11967;50.852;4.400;2024-02-28T12:57:27;11.90;99.90
23579;DHT22;11967;50.852;4.400;2024-02-28T12:59:54;11.90;99.90
23579;DHT22;11967;50.852;4.400;2024-02-28T13:02:19;11.80;99.90
23579;DHT22;11967;50.852;4.400;2024-02-28T13:04:45;11.90;99.90
23579;DHT22;11967;50.852;4.400;2024-02-28T13:07:11;12.00;99.90
23579;DHT22;11967;50.852;4.400;2024-02-28T13:09:37;12.00;99.90
23579;DHT22;11967;50.852;4.400;2024-02-28T13:12:03;12.00;99.90
23579;DHT22;11967;50.852;4.400;2024-02-28T13:14:30;12.00;99.90
23579;DHT22;11967;50.852;4.400;2024-02-28T13:16:56;12.00;99.90
23579;DHT22;11967;50.852;4.400;2024-02-28T13:19:22;12.10;99.90
23579;DHT22;11967;50.852;4.400;2024-02-28T13:21:48;12.00;99.90
23579;DHT22;11967;50.852;4.400;2024-02-28T13:24:13;12.00;99.90
23579;DHT22;11967;50.852;4.400;2024-02-28T13:26:40;12.10;99.90
23579;DHT22;11967;50.852;4.400;2024-02-28T13:29:07;12.00;99.90
23579;DHT22;11967;50.852;4.400;2024-02-28T13:31:34;12.00;99.90
23579;DHT22;11967;50.852;4.400;2024-02-28T13:34:00;12.10;99.90
23579;DHT22;11967;50.852;4.400;2024-02-28T13:36:26;12.10;99.90
23579;DHT22;11967;50.852;4.400;2024-02-28T13:38:51;12.10;99.90
23579;DHT22;11967;50.852;4.400;2024-02-28T13:41:17;12.10;99.90
23579;DHT22;11967;50.852;4.400;2024-02-28T13:43:43;12.20;99.90
23579;DHT22;11967;50.852;4.400;2024-02-28T13:46:08;12.40;99.90
23579;DHT22;11967;50.852;4.400;2024-02-28T13:48:35;12.20;99.90
23579;DHT22;11967;50.852;4.400;2024-02-28T13:51:01;12.30;99.90
23579;DHT22;11967;50.852;4.400;2024-02-28T13:53:27;12.30;99.90
23579;DHT22;11967;50.852;4.400;2024-02-28T13:55:53;12.20;99.90
23579;DHT22;11967;50.852;4.400;2024-02-28T13:58:19;12.20;99.90
23579;DHT22;11967;50.852;4.400;2024-02-28T14:00:45;12.20;99.90
23579;DHT22;11967;50.852;4.400;2024-02-28T14:03:12;12.30;99.90
23579;DHT22;11967;50.852;4.400;2024-02-28T14:05:38;12.20;99.90
23579;DHT22;11967;50.852;4.400;2024-02-28T14:08:04;12.10;99.90
23579;DHT22;11967;50.852;4.400;2024-02-28T14:10:30;12.20;99.90
23579;DHT22;11967;50.852;4.400;2024-02-28T14:12:56;12.10;99.90
23579;DHT22;11967;50.852;4.400;2024-02-28T14:15:23;12.10;99.90
23579;DHT22;11967;50.852;4.400;2024-02-28T14:17:49;12.00;99.90
23579;DHT22;11967;50.852;4.400;2024-02-28T14:20:15;12.00;99.90
23579;DHT22;11967;50.852;4.400;2024-02-28T14:22:40;12.10;99.90
23579;DHT22;11967;50.852;4.400;2024-02-28T14:25:17;12.00;99.90
23579;DHT22;11967;50.852;4.400;2024-02-28T14:27:46;12.10;99.90
23579;DHT22;11967;50.852;4.400;2024-02-28T14:30:13;12.00;99.90
23579;DHT22;11967;50.852;4.400;2024-02-28T14:32:39;12.00;99.90
23579;DHT22;11967;50.852;4.400;2024-02-28T14:35:06;11.90;99.90
23579;DHT22;11967;50.852;4.400;2024-02-28T14:37:33;12.00;99.90
23579;DHT22;11967;50.852;4.400;2024-02-28T14:40:00;12.10;99.90
23579;DHT22;11967;50.852;4.400;2024-02-28T14:42:32;12.20;99.90
23579;DHT22;11967;50.852;4.400;2024-02-28T14:44:59;12.30;99.90
23579;DHT22;11967;50.852;4.400;2024-02-28T14:47:25;12.30;99.90
23579;DHT22;11967;50.852;4.400;2024-02-28T14:49:50;12.40;99.90
23579;DHT22;11967;50.852;4.400;2024-02-28T14:52:16;12.20;99.90
23579;DHT22;11967;50.852;4.400;2024-02-28T14:54:42;12.20;99.90
23579;DHT22;11967;50.852;4.400;2024-02-28T14:57:09;12.10;99.90
23579;DHT22;11967;50.852;4.400;2024-02-28T14:59:35;12.10;99.90
23579;DHT22;11967;50.852;4.400;2024-02-28T15:02:01;12.10;99.90
23579;DHT22;11967;50.852;4.400;2024-02-28T15:04:26;12.10;99.90
23579;DHT22;11967;50.852;4.400;2024-02-28T15:06:52;12.20;99.90
23579;DHT22;11967;50.852;4.400;2024-02-28T15:09:18;12.10;99.90
23579;DHT22;11967;50.852;4.400;2024-02-28T15:11:47;12.20;99.90
23579;DHT22;11967;50.852;4.400;2024-02-28T15:14:13;12.20;99.90
23579;DHT22;11967;50.852;4.400;2024-02-28T15:16:39;12.30;99.90
23579;DHT22;11967;50.852;4.400;2024-02-28T15:19:04;12.20;99.90
23579;DHT22;11967;50.852;4.400;2024-02-28T15:21:31;12.10;99.90
23579;DHT22;11967;50.852;4.400;2024-02-28T15:23:56;12.10;99.90
23579;DHT22;11967;50.852;4.400;2024-02-28T15:26:22;12.20;99.90
23579;DHT22;11967;50.852;4.400;2024-02-28T15:28:48;12.30;99.90
23579;DHT22;11967;50.852;4.400;2024-02-28T15:31:13;12.30;99.90